createdAt,value
2019-05-02T00:00:50.952Z,39.28
2019-05-02T00:01:59.882Z,39.28
2019-05-02T00:03:09.572Z,39.28
2019-05-02T00:04:22.197Z,39.37
2019-05-02T00:05:34.713Z,39.37
2019-05-02T00:06:45.563Z,39.47
2019-05-02T00:07:58.433Z,39.37
2019-05-02T00:09:11.643Z,39.47
2019-05-02T00:10:24.767Z,39.37
2019-05-02T00:11:34.448Z,39.37
2019-05-02T00:12:43.921Z,39.47
2019-05-02T00:13:53.398Z,39.37
2019-05-02T00:15:04.763Z,39.47
2019-05-02T00:16:16.425Z,39.37
2019-05-02T00:17:28.002Z,39.37
2019-05-02T00:18:39.671Z,39.37
2019-05-02T00:19:52.293Z,39.37
2019-05-02T00:21:03.909Z,39.37
2019-05-02T00:22:17.094Z,39.28
2019-05-02T00:23:30.815Z,39.28
2019-05-02T00:24:41.974Z,38.89
2019-05-02T00:25:55.284Z,38.79
2019-05-02T00:27:05.648Z,38.99
2019-05-02T00:28:16.395Z,38.99
2019-05-02T00:29:26.178Z,38.79
2019-05-02T00:30:37.318Z,38.89
2019-05-02T00:31:49.431Z,38.6
2019-05-02T00:33:00.927Z,38.7
2019-05-02T00:34:13.019Z,38.6
2019-05-02T00:35:21.952Z,38.79
2019-05-02T00:36:31.133Z,38.7
2019-05-02T00:37:39.802Z,38.6
2019-05-02T00:38:49.236Z,38.7
2019-05-02T00:39:58.156Z,38.7
2019-05-02T00:41:07.137Z,38.7
2019-05-02T00:42:22.368Z,38.6
2019-05-02T00:43:37.205Z,38.7
2019-05-02T00:44:49.504Z,38.79
2019-05-02T00:46:02.389Z,38.89
2019-05-02T00:47:13.471Z,38.7
2019-05-02T00:48:25.663Z,38.7
2019-05-02T00:49:37.960Z,38.7
2019-05-02T00:50:52.695Z,38.51
2019-05-02T00:52:03.780Z,38.79
2019-05-02T00:53:14.567Z,38.6
2019-05-02T00:54:26.708Z,38.7
2019-05-02T00:55:37.920Z,38.7
2019-05-02T00:56:47.801Z,38.6
2019-05-02T00:57:58.935Z,38.7
2019-05-02T00:59:10.235Z,38.6
2019-05-02T01:00:21.168Z,38.6
2019-05-02T01:01:32.193Z,38.79
2019-05-02T01:02:43.229Z,38.79
2019-05-02T01:03:54.746Z,38.6
2019-05-02T01:05:05.797Z,38.6
2019-05-02T01:06:17.585Z,38.51
2019-05-02T01:07:27.807Z,38.6
2019-05-02T01:08:38.173Z,38.41
2019-05-02T01:09:49.344Z,38.6
2019-05-02T01:10:59.140Z,38.6
2019-05-02T01:12:10.709Z,38.41
2019-05-02T01:13:32.786Z,38.51
2019-05-02T01:14:42.224Z,38.51
2019-05-02T01:15:51.409Z,38.7
2019-05-02T01:17:00.585Z,38.41
2019-05-02T01:18:10.444Z,38.6
2019-05-02T01:19:19.881Z,38.21
2019-05-02T01:20:30.481Z,38.21
2019-05-02T01:21:41.525Z,38.12
2019-05-02T01:22:54.972Z,38.41
2019-05-02T01:24:05.569Z,38.41
2019-05-02T01:25:19.302Z,38.41
2019-05-02T01:26:31.835Z,38.51
2019-05-02T01:27:43.659Z,38.12
2019-05-02T01:28:56.756Z,38.31
2019-05-02T01:30:08.520Z,38.21
2019-05-02T01:31:20.938Z,38.29
2019-05-02T01:32:32.531Z,38.29
2019-05-02T01:33:44.549Z,38.41
2019-05-02T01:34:57.241Z,38.31
2019-05-02T01:36:08.909Z,38.29
2019-05-02T01:37:23.405Z,38.29
2019-05-02T01:38:34.390Z,38.29
2019-05-02T01:39:45.252Z,38.29
2019-05-02T01:40:55.861Z,38.31
2019-05-02T01:42:07.699Z,38.39
2019-05-02T01:43:19.763Z,38.41
2019-05-02T01:44:36.221Z,38.31
2019-05-02T01:45:49.108Z,38.39
2019-05-02T01:47:01.319Z,38.2
2019-05-02T01:48:12.368Z,38.29
2019-05-02T01:49:24.116Z,38.29
2019-05-02T01:50:36.059Z,38.29
2019-05-02T01:51:51.339Z,38.39
2019-05-02T01:53:02.272Z,38.29
2019-05-02T01:54:13.743Z,38.49
2019-05-02T01:55:23.839Z,38.39
2019-05-02T01:56:35.565Z,38.39
2019-05-02T01:57:47.268Z,38.49
2019-05-02T01:59:00.149Z,38.49
2019-05-02T02:00:11.978Z,38.68
2019-05-02T02:01:24.208Z,38.39
2019-05-02T02:02:35.372Z,38.58
2019-05-02T02:03:48.070Z,38.58
2019-05-02T02:04:59.485Z,38.39
2019-05-02T02:06:10.673Z,38.39
2019-05-02T02:07:22.708Z,38.29
2019-05-02T02:08:35.075Z,38.39
2019-05-02T02:09:46.615Z,38.29
2019-05-02T02:10:58.931Z,38.39
2019-05-02T02:12:12.047Z,38.39
2019-05-02T02:13:21.495Z,38.39
2019-05-02T02:14:34.092Z,38.29
2019-05-02T02:15:43.299Z,38.2
2019-05-02T02:16:52.227Z,38.39
2019-05-02T02:18:01.407Z,38.1
2019-05-02T02:19:10.354Z,38.39
2019-05-02T02:20:19.771Z,38.2
2019-05-02T02:21:30.133Z,38.2
2019-05-02T02:22:41.976Z,38.2
2019-05-02T02:23:51.927Z,38.1
2019-05-02T02:25:04.766Z,38.29
2019-05-02T02:26:14.648Z,38.2
2019-05-02T02:27:27.093Z,38.1
2019-05-02T02:28:36.267Z,38.1
2019-05-02T02:29:46.576Z,38.01
2019-05-02T02:31:07.847Z,38.01
2019-05-02T02:32:26.660Z,38.1
2019-05-02T02:33:49.842Z,38.01
2019-05-02T02:35:03.347Z,38.01
2019-05-02T02:36:29.494Z,38.01
2019-05-02T02:37:55.648Z,38.1
2019-05-02T02:39:13.970Z,38.1
2019-05-02T02:40:35.792Z,38.1
2019-05-02T02:41:54.080Z,37.81
2019-05-02T02:43:32.712Z,38.01
2019-05-02T02:44:44.131Z,37.71
2019-05-02T02:46:00.089Z,37.71
2019-05-02T02:47:21.125Z,37.91
2019-05-02T02:48:42.753Z,38.01
2019-05-02T02:50:05.302Z,37.91
2019-05-02T02:51:26.295Z,37.91
2019-05-02T02:52:44.442Z,37.91
2019-05-02T02:54:06.050Z,37.91
2019-05-02T02:55:21.893Z,37.91
2019-05-02T02:56:40.382Z,37.81
2019-05-02T02:57:50.847Z,37.71
2019-05-02T02:59:09.918Z,37.71
2019-05-02T03:00:29.369Z,37.81
2019-05-02T03:01:44.407Z,37.91
2019-05-02T03:02:54.123Z,37.71
2019-05-02T03:04:12.139Z,37.62
2019-05-02T03:05:29.911Z,37.71
2019-05-02T03:06:44.659Z,37.71
2019-05-02T03:07:59.399Z,37.62
2019-05-02T03:09:20.016Z,37.71
2019-05-02T03:10:39.808Z,37.71
2019-05-02T03:12:01.932Z,37.62
2019-05-02T03:13:24.224Z,37.81
2019-05-02T03:14:33.766Z,37.71
2019-05-02T03:15:52.531Z,37.91
2019-05-02T03:17:12.226Z,37.81
2019-05-02T03:18:43.262Z,37.52
2019-05-02T03:20:03.795Z,37.91
2019-05-02T03:21:22.477Z,37.62
2019-05-02T03:22:43.551Z,37.71
2019-05-02T03:24:05.744Z,37.71
2019-05-02T03:25:24.990Z,37.71
2019-05-02T03:27:00.602Z,38.01
2019-05-02T03:28:20.912Z,37.91
2019-05-02T03:29:44.386Z,37.91
2019-05-02T03:30:54.548Z,37.62
2019-05-02T03:32:36.843Z,37.81
2019-05-02T03:34:06.340Z,37.81
2019-05-02T03:35:39.568Z,37.81
2019-05-02T03:37:03.051Z,37.71
2019-05-02T03:38:35.105Z,37.62
2019-05-02T03:39:49.294Z,37.71
2019-05-02T03:41:05.798Z,37.91
2019-05-02T03:42:28.929Z,37.81
2019-05-02T03:44:09.673Z,37.91
2019-05-02T03:45:39.747Z,37.81
2019-05-02T03:47:04.831Z,37.91
2019-05-02T03:48:27.751Z,37.62
2019-05-02T03:49:52.191Z,37.91
2019-05-02T03:51:04.984Z,37.62
2019-05-02T03:52:36.474Z,37.62
2019-05-02T03:53:51.608Z,37.62
2019-05-02T03:55:15.702Z,37.81
2019-05-02T03:56:36.688Z,37.7
2019-05-02T03:57:56.349Z,37.71
2019-05-02T03:59:18.978Z,37.81
2019-05-02T04:00:44.795Z,37.71
2019-05-02T04:02:06.356Z,37.89
2019-05-02T04:03:26.669Z,37.89
2019-05-02T04:04:54.025Z,37.89
2019-05-02T04:06:13.638Z,37.89
2019-05-02T04:07:39.298Z,37.7
2019-05-02T04:08:58.647Z,37.91
2019-05-02T04:10:13.234Z,37.89
2019-05-02T04:11:37.802Z,37.6
2019-05-02T04:12:52.922Z,37.71
2019-05-02T04:14:36.039Z,37.7
2019-05-02T04:15:47.145Z,37.7
2019-05-02T04:16:57.996Z,37.7
2019-05-02T04:18:15.154Z,37.7
2019-05-02T04:19:34.740Z,37.7
2019-05-02T04:20:49.476Z,37.79
2019-05-02T04:22:11.850Z,37.7
2019-05-02T04:23:27.477Z,37.79
2019-05-02T04:24:37.588Z,37.7
2019-05-02T04:25:59.572Z,37.7
2019-05-02T04:27:17.734Z,37.7
2019-05-02T04:28:38.697Z,37.7
2019-05-02T04:29:57.191Z,37.7
2019-05-02T04:31:24.578Z,37.7
2019-05-02T04:32:49.553Z,37.79
2019-05-02T04:34:13.480Z,37.7
2019-05-02T04:35:34.737Z,37.7
2019-05-02T04:36:59.352Z,37.7
2019-05-02T04:38:31.385Z,37.7
2019-05-02T04:40:04.059Z,37.89
2019-05-02T04:41:33.982Z,37.89
2019-05-02T04:43:08.028Z,37.7
2019-05-02T04:44:29.623Z,37.7
2019-05-02T04:46:51.405Z,37.89
2019-05-02T04:48:24.640Z,37.89
2019-05-02T04:49:54.052Z,37.89
2019-05-02T04:51:31.850Z,37.71
2019-05-02T04:52:54.261Z,37.79
2019-05-02T04:54:09.177Z,37.89
2019-05-02T04:55:38.034Z,37.81
2019-05-02T04:57:04.813Z,37.7
2019-05-02T04:58:32.606Z,37.89
2019-05-02T05:00:02.114Z,37.7
2019-05-02T05:01:23.874Z,37.79
2019-05-02T05:03:00.262Z,37.6
2019-05-02T05:04:23.950Z,37.79
2019-05-02T05:05:50.717Z,37.89
2019-05-02T05:07:17.553Z,37.6
2019-05-02T05:08:31.782Z,37.7
2019-05-02T05:10:02.962Z,37.79
2019-05-02T05:11:18.961Z,37.79
2019-05-02T05:12:37.887Z,37.7
2019-05-02T05:14:00.293Z,37.7
2019-05-02T05:15:33.223Z,37.7
2019-05-02T05:17:00.236Z,37.6
2019-05-02T05:18:14.981Z,37.6
2019-05-02T05:19:28.545Z,37.5
2019-05-02T05:20:45.820Z,37.6
2019-05-02T05:22:11.551Z,37.5
2019-05-02T05:23:24.062Z,37.52
2019-05-02T05:24:43.536Z,37.5
2019-05-02T05:26:02.880Z,37.52
2019-05-02T05:27:18.746Z,37.6
2019-05-02T05:28:34.988Z,37.6
2019-05-02T05:29:53.437Z,37.5
2019-05-02T05:31:29.096Z,37.6
2019-05-02T05:32:40.873Z,37.5
2019-05-02T05:33:50.749Z,37.6
2019-05-02T05:35:08.825Z,37.5
2019-05-02T05:36:34.280Z,37.6
2019-05-02T05:37:48.896Z,37.6
2019-05-02T05:39:08.270Z,37.6
2019-05-02T05:40:28.067Z,37.6
2019-05-02T05:41:48.246Z,37.6
2019-05-02T05:43:11.940Z,37.6
2019-05-02T05:44:33.047Z,37.5
2019-05-02T05:46:09.053Z,37.6
2019-05-02T05:47:23.640Z,37.5
2019-05-02T05:48:41.476Z,37.5
2019-05-02T05:49:57.435Z,37.6
2019-05-02T05:51:16.886Z,37.5
2019-05-02T05:52:32.916Z,37.5
2019-05-02T05:53:52.249Z,37.6
2019-05-02T05:55:18.116Z,37.41
2019-05-02T05:56:37.573Z,37.41
2019-05-02T05:58:00.918Z,37.41
2019-05-02T05:59:27.912Z,37.6
2019-05-02T06:00:40.665Z,37.6
2019-05-02T06:02:05.354Z,37.6
2019-05-02T06:03:21.295Z,37.5
2019-05-02T06:04:38.252Z,37.5
2019-05-02T06:05:52.476Z,37.5
2019-05-02T06:07:07.194Z,37.41
2019-05-02T06:08:20.860Z,37.6
2019-05-02T06:09:33.698Z,37.5
2019-05-02T06:10:46.225Z,37.31
2019-05-02T06:11:57.533Z,37.5
2019-05-02T06:13:10.784Z,37.41
2019-05-02T06:14:24.798Z,37.31
2019-05-02T06:15:41.695Z,37.31
2019-05-02T06:17:06.694Z,37.31
2019-05-02T06:18:15.632Z,37.31
2019-05-02T06:19:25.083Z,37.31
2019-05-02T06:20:34.539Z,37.21
2019-05-02T06:21:47.425Z,37.41
2019-05-02T06:22:59.881Z,37.41
2019-05-02T06:24:15.631Z,37.41
2019-05-02T06:25:36.637Z,37.31
2019-05-02T06:26:52.650Z,37.31
2019-05-02T06:28:05.162Z,37.21
2019-05-02T06:29:18.429Z,37.21
2019-05-02T06:30:33.551Z,37.21
2019-05-02T06:31:45.742Z,37.21
2019-05-02T06:32:57.475Z,37.21
2019-05-02T06:34:09.362Z,37.21
2019-05-02T06:35:23.147Z,37.21
2019-05-02T06:36:36.797Z,37.21
2019-05-02T06:37:49.910Z,37.21
2019-05-02T06:39:00.104Z,37.21
2019-05-02T06:40:10.737Z,37.21
2019-05-02T06:41:24.559Z,37.31
2019-05-02T06:42:37.834Z,37.21
2019-05-02T06:43:49.113Z,37.21
2019-05-02T06:45:02.434Z,37.21
2019-05-02T06:46:21.576Z,37.23
2019-05-02T06:47:41.388Z,37.31
2019-05-02T06:48:54.546Z,37.21
2019-05-02T06:50:05.141Z,37.21
2019-05-02T06:51:21.891Z,37.21
2019-05-02T06:52:35.294Z,37.21
2019-05-02T06:53:49.554Z,37.33
2019-05-02T06:55:00.359Z,37.23
2019-05-02T06:56:12.609Z,37.31
2019-05-02T06:57:26.645Z,37.21
2019-05-02T06:58:41.833Z,37.12
2019-05-02T06:59:56.905Z,37.21
2019-05-02T07:01:05.846Z,37.31
2019-05-02T07:02:18.652Z,37.21
2019-05-02T07:03:30.914Z,37.23
2019-05-02T07:04:44.085Z,37.21
2019-05-02T07:06:02.638Z,37.21
2019-05-02T07:07:15.719Z,37.21
2019-05-02T07:08:39.859Z,37.21
2019-05-02T07:09:48.765Z,37.21
2019-05-02T07:11:03.831Z,37.31
2019-05-02T07:12:17.433Z,37.21
2019-05-02T07:13:26.624Z,37.21
2019-05-02T07:14:38.888Z,37.21
2019-05-02T07:15:51.184Z,37.21
2019-05-02T07:17:00.868Z,37.21
2019-05-02T07:18:14.687Z,37.21
2019-05-02T07:19:29.525Z,37.23
2019-05-02T07:20:43.376Z,37.33
2019-05-02T07:21:58.389Z,37.23
2019-05-02T07:23:16.014Z,37.31
2019-05-02T07:24:30.497Z,37.23
2019-05-02T07:25:43.859Z,37.21
2019-05-02T07:26:56.780Z,37.23
2019-05-02T07:28:12.078Z,37.23
2019-05-02T07:29:24.469Z,37.23
2019-05-02T07:30:37.721Z,37.23
2019-05-02T07:31:53.376Z,37.33
2019-05-02T07:33:04.860Z,37.23
2019-05-02T07:34:15.554Z,37.23
2019-05-02T07:35:26.932Z,37.23
2019-05-02T07:36:39.159Z,37.23
2019-05-02T07:37:51.522Z,37.33
2019-05-02T07:39:07.236Z,37.21
2019-05-02T07:40:19.434Z,37.23
2019-05-02T07:41:31.331Z,37.23
2019-05-02T07:42:44.552Z,37.23
2019-05-02T07:43:56.203Z,37.23
2019-05-02T07:45:12.042Z,37.23
2019-05-02T07:46:23.658Z,37.23
2019-05-02T07:47:40.088Z,37.23
2019-05-02T07:48:54.373Z,37.23
2019-05-02T07:50:10.245Z,37.21
2019-05-02T07:51:23.974Z,37.23
2019-05-02T07:52:36.177Z,37.23
2019-05-02T07:53:50.840Z,37.23
2019-05-02T07:55:06.244Z,37.21
2019-05-02T07:56:20.385Z,37.23
2019-05-02T07:57:33.040Z,37.23
2019-05-02T07:58:49.575Z,37.23
2019-05-02T08:00:03.378Z,37.23
2019-05-02T08:01:16.226Z,37.31
2019-05-02T08:02:27.779Z,37.23
2019-05-02T08:03:37.229Z,37.23
2019-05-02T08:04:47.314Z,37.23
2019-05-02T08:06:00.932Z,37.23
2019-05-02T08:07:09.896Z,37.23
2019-05-02T08:08:32.403Z,37.33
2019-05-02T08:09:46.498Z,37.23
2019-05-02T08:11:04.044Z,37.23
2019-05-02T08:12:13.775Z,37.23
2019-05-02T08:13:22.712Z,37.23
2019-05-02T08:14:36.901Z,37.23
2019-05-02T08:15:52.597Z,37.33
2019-05-02T08:17:15.829Z,37.23
2019-05-02T08:18:30.225Z,37.23
2019-05-02T08:19:44.549Z,37.23
2019-05-02T08:20:58.562Z,37.23
2019-05-02T08:22:15.706Z,37.33
2019-05-02T08:23:28.536Z,37.23
2019-05-02T08:24:40.436Z,37.23
2019-05-02T08:25:49.904Z,37.23
2019-05-02T08:27:00.702Z,37.23
2019-05-02T08:28:17.884Z,37.23
2019-05-02T08:29:31.545Z,37.33
2019-05-02T08:30:43.066Z,37.23
2019-05-02T08:31:52.268Z,37.23
2019-05-02T08:33:00.958Z,37.43
2019-05-02T08:34:17.528Z,37.43
2019-05-02T08:35:30.405Z,37.23
2019-05-02T08:36:39.850Z,37.23
2019-05-02T08:37:49.057Z,37.23
2019-05-02T08:39:01.022Z,37.23
2019-05-02T08:40:13.279Z,37.23
2019-05-02T08:41:23.843Z,37.23
2019-05-02T08:42:35.273Z,37.13
2019-05-02T08:43:47.531Z,37.04
2019-05-02T08:45:00.844Z,37.23
2019-05-02T08:46:14.400Z,37.23
2019-05-02T08:47:28.441Z,37.13
2019-05-02T08:48:41.690Z,37.13
2019-05-02T08:49:57.314Z,37.04
2019-05-02T08:51:06.508Z,37.13
2019-05-02T08:52:15.968Z,37.13
2019-05-02T08:53:25.646Z,37.13
2019-05-02T08:54:36.447Z,37.13
2019-05-02T08:55:47.821Z,37.13
2019-05-02T08:57:01.904Z,37.13
2019-05-02T08:58:17.296Z,37.13
2019-05-02T08:59:28.524Z,37.33
2019-05-02T09:00:40.329Z,37.13
2019-05-02T09:01:53.888Z,37.04
2019-05-02T09:03:05.236Z,36.94
2019-05-02T09:04:14.936Z,37.04
2019-05-02T09:05:26.989Z,37.13
2019-05-02T09:06:40.678Z,37.04
2019-05-02T09:08:00.468Z,36.85
2019-05-02T09:09:17.077Z,37.13
2019-05-02T09:10:37.014Z,36.94
2019-05-02T09:12:12.114Z,37.04
2019-05-02T09:13:32.984Z,36.94
2019-05-02T09:14:44.841Z,37.04
2019-05-02T09:15:56.526Z,36.94
2019-05-02T09:17:18.091Z,37.33
2019-05-02T09:18:56.204Z,36.94
2019-05-02T09:20:20.701Z,37.23
2019-05-02T09:21:37.137Z,37.13
2019-05-02T09:22:52.008Z,36.94
2019-05-02T09:24:08.318Z,36.85
2019-05-02T09:25:27.902Z,36.85
2019-05-02T09:26:42.547Z,36.94
2019-05-02T09:27:52.600Z,36.94
2019-05-02T09:29:06.033Z,36.85
2019-05-02T09:30:22.463Z,36.85
2019-05-02T09:31:41.988Z,36.94
2019-05-02T09:33:06.436Z,36.94
2019-05-02T09:34:22.589Z,36.94
2019-05-02T09:35:37.012Z,36.85
2019-05-02T09:36:46.982Z,36.94
2019-05-02T09:37:58.258Z,36.94
2019-05-02T09:39:08.894Z,37.04
2019-05-02T09:40:19.115Z,36.85
2019-05-02T09:41:37.221Z,36.85
2019-05-02T09:42:53.109Z,37.04
2019-05-02T09:44:14.382Z,36.85
2019-05-02T09:45:33.232Z,37.04
2019-05-02T09:46:52.925Z,36.85
2019-05-02T09:48:09.473Z,37.13
2019-05-02T09:49:27.248Z,37.23
2019-05-02T09:50:42.102Z,37.13
2019-05-02T09:51:59.030Z,36.85
2019-05-02T09:53:25.417Z,36.85
2019-05-02T09:54:42.362Z,36.85
2019-05-02T09:56:01.894Z,37.13
2019-05-02T09:57:12.072Z,37.04
2019-05-02T09:58:24.298Z,36.85
2019-05-02T09:59:35.623Z,37.04
2019-05-02T10:00:58.358Z,37.13
2019-05-02T10:02:09.398Z,37.13
2019-05-02T10:03:20.010Z,37.13
2019-05-02T10:04:29.559Z,37.13
2019-05-02T10:05:39.994Z,36.85
2019-05-02T10:06:52.191Z,36.94
2019-05-02T10:08:10.906Z,37.04
2019-05-02T10:09:28.576Z,37.04
2019-05-02T10:10:46.142Z,37.04
2019-05-02T10:11:57.439Z,37.13
2019-05-02T10:13:09.124Z,37.04
2019-05-02T10:14:19.382Z,37.04
2019-05-02T10:15:29.865Z,37.04
2019-05-02T10:16:40.007Z,37.04
2019-05-02T10:17:51.873Z,37.13
2019-05-02T10:19:28.155Z,37.13
2019-05-02T10:20:52.367Z,37.13
2019-05-02T10:22:04.258Z,37.13
2019-05-02T10:23:23.374Z,37.33
2019-05-02T10:24:34.541Z,37.13
2019-05-02T10:25:49.320Z,37.23
2019-05-02T10:27:08.727Z,37.13
2019-05-02T10:28:19.474Z,37.13
2019-05-02T10:29:32.882Z,37.13
2019-05-02T10:30:47.252Z,37.13
2019-05-02T10:32:07.423Z,37.13
2019-05-02T10:33:22.589Z,37.23
2019-05-02T10:34:42.206Z,37.13
2019-05-02T10:36:02.445Z,37.13
2019-05-02T10:37:30.484Z,37.13
2019-05-02T10:38:54.563Z,37.13
2019-05-02T10:40:13.311Z,37.33
2019-05-02T10:41:31.610Z,37.04
2019-05-02T10:42:52.009Z,37.13
2019-05-02T10:44:02.321Z,37.13
2019-05-02T10:45:17.652Z,37.13
2019-05-02T10:46:33.257Z,37.13
2019-05-02T10:47:46.622Z,37.23
2019-05-02T10:48:57.517Z,37.13
2019-05-02T10:50:09.287Z,37.13
2019-05-02T10:51:19.042Z,37.13
2019-05-02T10:52:36.477Z,37.13
2019-05-02T10:53:52.522Z,36.85
2019-05-02T10:55:05.168Z,37.13
2019-05-02T10:56:15.767Z,37.04
2019-05-02T10:57:26.802Z,37.13
2019-05-02T10:58:38.202Z,36.94
2019-05-02T10:59:47.376Z,36.85
2019-05-02T11:00:58.608Z,37.23
2019-05-02T11:02:09.436Z,37.23
2019-05-02T11:03:19.754Z,37.13
2019-05-02T11:04:32.410Z,37.13
2019-05-02T11:05:44.161Z,36.94
2019-05-02T11:06:56.769Z,36.85
2019-05-02T11:08:08.729Z,36.85
2019-05-02T11:09:26.319Z,37.13
2019-05-02T11:10:36.900Z,36.85
2019-05-02T11:11:47.038Z,36.94
2019-05-02T11:12:58.673Z,36.94
2019-05-02T11:14:09.245Z,37.13
2019-05-02T11:15:18.917Z,36.94
2019-05-02T11:16:32.197Z,37.13
2019-05-02T11:17:42.290Z,36.85
2019-05-02T11:18:52.441Z,37.04
2019-05-02T11:20:04.327Z,37.13
2019-05-02T11:21:15.193Z,37.23
2019-05-02T11:22:27.935Z,37.13
2019-05-02T11:23:39.578Z,36.85
2019-05-02T11:24:49.968Z,37.23
2019-05-02T11:26:01.660Z,37.04
2019-05-02T11:27:12.666Z,37.13
2019-05-02T11:28:24.464Z,37.23
2019-05-02T11:29:35.251Z,36.85
2019-05-02T11:30:45.198Z,36.94
2019-05-02T11:31:55.378Z,37.13
2019-05-02T11:33:05.642Z,36.85
2019-05-02T11:34:17.793Z,36.85
2019-05-02T11:35:29.098Z,37.13
2019-05-02T11:36:38.994Z,37.04
2019-05-02T11:37:49.190Z,36.85
2019-05-02T11:39:19.470Z,36.85
2019-05-02T11:40:54.626Z,37.23
2019-05-02T11:42:05.384Z,37.04
2019-05-02T11:43:15.409Z,37.13
2019-05-02T11:44:27.203Z,37.04
2019-05-02T11:45:37.632Z,37.04
2019-05-02T11:46:49.149Z,36.85
2019-05-02T11:48:11.854Z,37.13
2019-05-02T11:49:25.248Z,37.04
2019-05-02T11:50:37.983Z,36.94
2019-05-02T11:51:58.037Z,37.04
2019-05-02T11:53:29.304Z,37.04
2019-05-02T11:54:44.569Z,36.94
2019-05-02T11:56:07.425Z,37.04
2019-05-02T11:57:32.697Z,36.94
2019-05-02T11:58:52.618Z,37.04
2019-05-02T12:00:09.431Z,37.04
2019-05-02T12:01:35.302Z,37.04
2019-05-02T12:03:04.736Z,36.94
2019-05-02T12:04:19.373Z,37.13
2019-05-02T12:05:31.619Z,36.94
2019-05-02T12:06:44.642Z,36.94
2019-05-02T12:08:12.099Z,36.94
2019-05-02T12:09:22.296Z,36.94
2019-05-02T12:10:37.172Z,36.94
2019-05-02T12:11:52.607Z,36.85
2019-05-02T12:13:11.756Z,36.94
2019-05-02T12:14:32.678Z,36.85
2019-05-02T12:15:46.769Z,37.04
2019-05-02T12:16:56.979Z,36.85
2019-05-02T12:18:07.968Z,36.85
2019-05-02T12:19:19.140Z,37.04
2019-05-02T12:20:33.690Z,36.94
2019-05-02T12:21:47.924Z,37.04
2019-05-02T12:22:58.147Z,37.04
2019-05-02T12:24:12.658Z,36.85
2019-05-02T12:25:24.742Z,36.85
2019-05-02T12:26:35.196Z,36.94
2019-05-02T12:27:49.189Z,37.04
2019-05-02T12:28:59.822Z,37.04
2019-05-02T12:30:11.564Z,36.94
2019-05-02T12:31:22.129Z,36.94
2019-05-02T12:32:33.380Z,36.94
2019-05-02T12:33:45.118Z,36.94
2019-05-02T12:34:56.563Z,37.04
2019-05-02T12:36:07.250Z,36.85
2019-05-02T12:37:17.015Z,37.04
2019-05-02T12:38:26.977Z,37.13
2019-05-02T12:39:36.893Z,37.04
2019-05-02T12:40:47.577Z,36.94
2019-05-02T12:42:03.040Z,37.04
2019-05-02T12:43:15.580Z,37.04
2019-05-02T12:44:25.812Z,37.13
2019-05-02T12:45:36.579Z,37.13
2019-05-02T12:46:46.706Z,37.13
2019-05-02T12:47:56.556Z,37.04
2019-05-02T12:49:07.163Z,37.04
2019-05-02T12:50:35.228Z,36.94
2019-05-02T12:51:46.830Z,37.13
2019-05-02T12:52:58.164Z,37.04
2019-05-02T12:54:08.209Z,37.04
2019-05-02T12:55:19.127Z,37.04
2019-05-02T12:56:28.980Z,37.04
2019-05-02T12:57:40.083Z,37.04
2019-05-02T12:58:50.313Z,37.04
2019-05-02T13:00:01.831Z,36.94
2019-05-02T13:01:12.236Z,37.13
2019-05-02T13:02:23.907Z,36.94
2019-05-02T13:03:34.396Z,37.13
2019-05-02T13:04:44.334Z,37.04
2019-05-02T13:05:55.626Z,37.04
2019-05-02T13:07:05.396Z,37.04
2019-05-02T13:08:15.631Z,36.94
2019-05-02T13:09:28.439Z,37.04
2019-05-02T13:10:39.202Z,36.94
2019-05-02T13:11:49.390Z,36.94
2019-05-02T13:12:59.489Z,36.94
2019-05-02T13:14:22.453Z,36.94
2019-05-02T13:15:32.919Z,36.94
2019-05-02T13:16:43.063Z,37.04
2019-05-02T13:18:05.415Z,36.94
2019-05-02T13:19:15.007Z,36.94
2019-05-02T13:20:39.372Z,36.94
2019-05-02T13:21:57.931Z,37.04
2019-05-02T13:23:08.986Z,37.04
2019-05-02T13:24:22.791Z,36.65
2019-05-02T13:25:39.441Z,36.75
2019-05-02T13:26:51.861Z,36.85
2019-05-02T13:28:12.261Z,36.94
2019-05-02T13:29:29.213Z,36.94
2019-05-02T13:30:46.641Z,36.75
2019-05-02T13:31:57.063Z,36.85
2019-05-02T13:33:12.193Z,36.55
2019-05-02T13:34:22.060Z,36.75
2019-05-02T13:35:34.707Z,36.85
2019-05-02T13:36:44.899Z,36.94
2019-05-02T13:37:54.838Z,36.85
2019-05-02T13:39:05.418Z,36.75
2019-05-02T13:40:17.068Z,36.85
2019-05-02T13:41:27.615Z,36.65
2019-05-02T13:42:37.177Z,36.85
2019-05-02T13:43:46.639Z,36.94
2019-05-02T13:44:57.017Z,36.85
2019-05-02T13:46:07.364Z,36.94
2019-05-02T13:47:17.638Z,36.75
2019-05-02T13:48:29.145Z,36.55
2019-05-02T13:49:57.381Z,36.65
2019-05-02T13:51:11.849Z,36.94
2019-05-02T13:52:22.586Z,36.75
2019-05-02T13:53:32.136Z,36.75
2019-05-02T13:54:42.601Z,36.65
2019-05-02T13:55:52.399Z,36.65
2019-05-02T13:57:05.569Z,36.55
2019-05-02T13:58:14.780Z,36.65
2019-05-02T13:59:37.972Z,36.85
2019-05-02T14:00:48.550Z,36.85
2019-05-02T14:02:00.145Z,36.65
2019-05-02T14:03:11.741Z,36.75
2019-05-02T14:04:23.149Z,36.85
2019-05-02T14:05:35.138Z,36.75
2019-05-02T14:06:58.508Z,36.65
2019-05-02T14:08:19.143Z,36.75
2019-05-02T14:09:38.082Z,36.65
2019-05-02T14:11:01.883Z,36.75
2019-05-02T14:12:11.808Z,36.75
2019-05-02T14:13:22.111Z,36.85
2019-05-02T14:14:32.555Z,36.85
2019-05-02T14:15:44.204Z,36.85
2019-05-02T14:16:55.374Z,36.75
2019-05-02T14:18:05.418Z,36.55
2019-05-02T14:19:15.159Z,36.75
2019-05-02T14:20:24.867Z,36.75
2019-05-02T14:21:35.956Z,36.65
2019-05-02T14:22:46.954Z,36.75
2019-05-02T14:23:57.754Z,36.75
2019-05-02T14:25:08.812Z,36.85
2019-05-02T14:26:33.167Z,36.65
2019-05-02T14:27:46.899Z,36.75
2019-05-02T14:29:12.461Z,36.85
2019-05-02T14:30:41.851Z,36.75
2019-05-02T14:31:54.919Z,36.85
2019-05-02T14:33:05.336Z,36.94
2019-05-02T14:34:14.591Z,37.04
2019-05-02T14:35:29.018Z,37.04
2019-05-02T14:36:42.284Z,36.94
2019-05-02T14:37:53.014Z,36.85
2019-05-02T14:39:04.612Z,36.94
2019-05-02T14:40:14.639Z,37.04
2019-05-02T14:41:25.252Z,37.04
2019-05-02T14:42:47.250Z,37.04
2019-05-02T14:44:02.677Z,36.94
2019-05-02T14:45:31.423Z,37.04
2019-05-02T14:46:46.045Z,37.04
2019-05-02T14:48:17.883Z,36.94
2019-05-02T14:49:32.049Z,36.94
2019-05-02T14:50:46.433Z,37.04
2019-05-02T14:52:02.709Z,36.94
2019-05-02T14:53:21.995Z,37.04
2019-05-02T14:54:37.977Z,36.94
2019-05-02T14:55:57.499Z,36.94
2019-05-02T14:57:16.999Z,37.04
2019-05-02T14:58:40.237Z,36.75
2019-05-02T14:59:59.015Z,36.94
2019-05-02T15:01:12.546Z,36.94
2019-05-02T15:02:39.177Z,37.04
2019-05-02T15:04:03.911Z,36.94
2019-05-02T15:05:27.817Z,37.04
2019-05-02T15:06:43.381Z,36.94
2019-05-02T15:08:02.316Z,37.04
2019-05-02T15:09:22.342Z,37.04
2019-05-02T15:10:52.241Z,36.94
2019-05-02T15:12:18.943Z,36.94
2019-05-02T15:13:32.199Z,37.04
2019-05-02T15:14:57.086Z,36.94
2019-05-02T15:16:10.336Z,36.94
2019-05-02T15:17:47.614Z,36.94
2019-05-02T15:18:59.581Z,37.04
2019-05-02T15:20:09.342Z,37.13
2019-05-02T15:21:22.343Z,37.04
2019-05-02T15:22:38.660Z,37.04
2019-05-02T15:23:54.087Z,36.94
2019-05-02T15:25:13.453Z,37.04
2019-05-02T15:26:31.210Z,37.04
2019-05-02T15:27:49.874Z,37.04
2019-05-02T15:29:11.903Z,37.04
2019-05-02T15:30:49.344Z,37.04
2019-05-02T15:32:03.092Z,37.04
2019-05-02T15:33:22.136Z,36.85
2019-05-02T15:34:48.664Z,36.94
2019-05-02T15:36:08.155Z,37.04
2019-05-02T15:37:25.861Z,37.04
2019-05-02T15:38:42.760Z,37.04
2019-05-02T15:41:54.811Z,37.04
2019-05-02T15:43:12.578Z,37.04
2019-05-02T15:44:27.090Z,36.94
2019-05-02T15:45:41.871Z,37.04
2019-05-02T15:46:58.298Z,37.04
2019-05-02T15:48:22.387Z,37.04
2019-05-02T15:49:41.566Z,37.04
2019-05-02T15:50:59.982Z,36.85
2019-05-02T15:52:24.026Z,37.04
2019-05-02T15:53:44.423Z,37.04
2019-05-02T15:55:14.863Z,37.04
2019-05-02T15:56:26.799Z,36.94
2019-05-02T15:57:47.100Z,37.13
2019-05-02T15:59:03.145Z,36.94
2019-05-02T16:00:25.744Z,37.04
2019-05-02T16:01:41.181Z,37.04
2019-05-02T16:03:01.350Z,37.04
2019-05-02T16:04:17.129Z,37.04
2019-05-02T16:05:32.053Z,36.94
2019-05-02T16:06:47.825Z,36.85
2019-05-02T16:08:08.760Z,37.04
2019-05-02T16:09:21.586Z,37.13
2019-05-02T16:10:42.684Z,36.94
2019-05-02T16:11:58.003Z,37.04
2019-05-02T16:13:13.319Z,37.04
2019-05-02T16:14:32.306Z,37.04
2019-05-02T16:15:45.118Z,37.04
2019-05-02T16:16:55.251Z,37.04
2019-05-02T16:18:07.753Z,36.94
2019-05-02T16:19:32.443Z,37.04
2019-05-02T16:20:49.355Z,37.04
2019-05-02T16:22:14.287Z,36.94